Time;durP1;ratioP1;P1;durP2;ratioP2;P2;SDS_P1;SDS_P2;PMS_P1;PMS_P2;Temp;Humidity;BMP_temperature;BMP_pressure;BME280_temperature;BME280_humidity;BME280_pressure;Samples;Min_cycle;Max_cycle;Signal;HPM_P1;HPM_P2
2023/04/23 00:00:00;;;;;;;26.73;18.08;;;7.50;99.90;;;;;;5052521;28;20045;-67
2023/04/23 00:02:28;;;;;;;38.83;23.25;;;7.50;99.90;;;;;;5052908;28;20040;-66
2023/04/23 00:04:56;;;;;;;36.20;22.33;;;7.50;99.90;;;;;;5054965;28;20158;-67
2023/04/23 00:07:22;;;;;;;29.67;20.58;;;7.50;99.90;;;;;;5051709;28;20044;-66
2023/04/23 00:09:51;;;;;;;32.83;22.73;;;7.60;99.90;;;;;;5052909;28;20055;-67
2023/04/23 00:12:17;;;;;;;43.55;25.10;;;7.50;99.90;;;;;;5054267;28;20432;-67
2023/04/23 00:14:43;;;;;;;27.35;19.05;;;7.50;99.90;;;;;;5052299;28;20116;-67
2023/04/23 00:17:08;;;;;;;27.15;18.20;;;7.60;99.90;;;;;;5054383;28;20114;-67
2023/04/23 00:19:34;;;;;;;48.15;27.23;;;7.60;99.90;;;;;;5053545;28;20571;-67
2023/04/23 00:22:00;;;;;;;36.95;21.98;;;7.50;99.90;;;;;;5052239;28;20041;-67
2023/04/23 00:24:26;;;;;;;36.50;23.65;;;7.50;99.90;;;;;;5052326;28;20527;-67
2023/04/23 00:26:52;;;;;;;32.55;21.02;;;7.50;99.90;;;;;;5051992;28;20045;-67
2023/04/23 00:29:18;;;;;;;36.63;23.95;;;7.50;99.90;;;;;;5053774;28;20119;-67
2023/04/23 00:31:43;;;;;;;34.38;21.85;;;7.60;99.90;;;;;;5052561;28;20123;-66
2023/04/23 00:34:09;;;;;;;35.33;23.90;;;7.60;99.90;;;;;;5053265;28;20115;-67
2023/04/23 00:36:35;;;;;;;40.60;26.27;;;7.60;99.90;;;;;;5052175;28;20071;-66
2023/04/23 00:39:00;;;;;;;37.03;23.42;;;7.60;99.90;;;;;;5053136;28;20036;-66
2023/04/23 00:41:27;;;;;;;36.35;24.52;;;7.60;99.90;;;;;;5051177;28;20451;-67
2023/04/23 00:43:53;;;;;;;47.05;27.90;;;7.60;99.90;;;;;;5052461;28;20048;-67
2023/04/23 00:46:19;;;;;;;44.90;26.27;;;7.60;99.90;;;;;;5053387;28;20448;-67
2023/04/23 00:48:46;;;;;;;47.65;29.83;;;7.70;99.90;;;;;;5051596;28;20044;-67
2023/04/23 00:51:11;;;;;;;50.05;30.23;;;7.70;99.90;;;;;;5053257;28;20106;-67
2023/04/23 00:53:37;;;;;;;58.47;33.58;;;7.70;99.90;;;;;;5051998;28;20044;-67
2023/04/23 00:56:05;;;;;;;48.63;30.20;;;7.70;99.90;;;;;;5052494;28;20033;-67
2023/04/23 00:58:31;;;;;;;54.10;31.40;;;7.70;99.90;;;;;;5051068;28;20041;-67
2023/04/23 01:00:57;;;;;;;51.85;30.95;;;7.80;99.90;;;;;;5035432;28;20052;-67
2023/04/23 01:03:25;;;;;;;63.63;34.10;;;7.80;99.90;;;;;;5051857;28;20044;-67
2023/04/23 01:05:51;;;;;;;55.28;32.08;;;7.80;99.90;;;;;;5052043;28;20520;-67
2023/04/23 01:08:18;;;;;;;61.50;32.75;;;7.80;99.90;;;;;;5052534;28;20658;-67
2023/04/23 01:10:44;;;;;;;52.28;32.85;;;7.80;99.90;;;;;;5034346;28;20057;-66
2023/04/23 01:13:12;;;;;;;60.45;34.45;;;7.90;99.90;;;;;;5051948;28;20493;-66
2023/04/23 01:15:38;;;;;;;56.22;31.00;;;7.90;99.90;;;;;;5052501;28;20040;-67
2023/04/23 01:18:06;;;;;;;46.60;28.75;;;7.80;99.90;;;;;;5051227;28;20029;-67
2023/04/23 01:20:36;;;;;;;56.03;31.50;;;7.80;99.90;;;;;;5053057;28;20095;-67
2023/04/23 01:23:02;;;;;;;49.38;30.92;;;7.80;99.90;;;;;;5034906;28;20045;-67
2023/04/23 01:25:28;;;;;;;61.20;33.15;;;7.80;99.90;;;;;;5051094;28;20044;-67
2023/04/23 01:27:56;;;;;;;48.30;30.42;;;7.70;99.90;;;;;;5053166;28;20045;-67
2023/04/23 01:30:22;;;;;;;56.58;32.30;;;7.70;99.90;;;;;;5050372;28;20152;-67
2023/04/23 01:32:49;;;;;;;50.58;32.80;;;7.70;99.90;;;;;;5051963;28;20087;-67
2023/04/23 01:35:14;;;;;;;55.13;33.42;;;7.70;99.90;;;;;;5052797;28;20029;-67
2023/04/23 01:37:42;;;;;;;42.58;26.92;;;7.70;99.90;;;;;;5050304;28;20101;-67
2023/04/23 01:40:09;;;;;;;60.95;34.38;;;7.70;99.90;;;;;;5034710;28;20519;-67
2023/04/23 01:42:35;;;;;;;46.63;29.88;;;7.60;99.90;;;;;;5051006;28;20147;-67
2023/04/23 01:45:02;;;;;;;40.35;27.70;;;7.60;99.90;;;;;;5050691;28;20041;-67
2023/04/23 01:47:27;;;;;;;50.58;30.75;;;7.60;99.90;;;;;;5034509;28;20041;-66
2023/04/23 01:49:54;;;;;;;69.32;36.47;;;7.60;99.90;;;;;;5050986;28;20052;-67
2023/04/23 01:52:19;;;;;;;61.05;34.38;;;7.50;99.90;;;;;;5050159;28;20029;-67
2023/04/23 01:54:45;;;;;;;53.63;32.08;;;7.50;99.90;;;;;;5050863;28;21751;-67
2023/04/23 01:57:11;;;;;;;56.35;34.80;;;7.50;99.90;;;;;;5034440;28;20501;-67
2023/04/23 01:59:38;;;;;;;58.30;34.92;;;7.50;99.90;;;;;;5051086;28;20039;-67
2023/04/23 02:02:04;;;;;;;67.57;37.35;;;7.50;99.90;;;;;;5051259;28;20049;-67
2023/04/23 02:04:30;;;;;;;61.28;35.58;;;7.50;99.90;;;;;;5049992;28;20041;-67
2023/04/23 02:06:56;;;;;;;70.30;36.67;;;7.50;99.90;;;;;;5050086;28;20102;-67
2023/04/23 02:09:21;;;;;;;61.30;34.88;;;7.40;99.90;;;;;;5050177;28;20065;-67
2023/04/23 02:11:47;;;;;;;85.63;39.25;;;7.40;99.90;;;;;;5033641;28;20111;-67
2023/04/23 02:14:13;;;;;;;66.72;37.30;;;7.40;99.90;;;;;;5049404;28;20025;-67
2023/04/23 02:16:39;;;;;;;60.92;36.53;;;7.40;99.90;;;;;;5033728;28;20120;-67
2023/04/23 02:19:04;;;;;;;53.75;34.15;;;7.40;99.90;;;;;;5051118;28;20459;-67
2023/04/23 02:21:30;;;;;;;51.38;31.52;;;7.40;99.90;;;;;;5049904;28;20426;-67
2023/04/23 02:23:56;;;;;;;64.65;38.22;;;7.40;99.90;;;;;;5051809;28;20386;-67
2023/04/23 02:26:23;;;;;;;68.93;37.63;;;7.30;99.90;;;;;;5049476;28;20051;-67
2023/04/23 02:28:49;;;;;;;74.75;40.03;;;7.40;99.90;;;;;;5050773;28;20045;-67
2023/04/23 02:31:16;;;;;;;64.93;38.67;;;7.40;99.90;;;;;;5051699;28;20037;-67
2023/04/23 02:33:42;;;;;;;75.70;39.72;;;7.40;99.90;;;;;;5049470;28;20175;-67
2023/04/23 02:36:10;;;;;;;66.13;39.50;;;7.40;99.90;;;;;;5051130;28;20383;-67
2023/04/23 02:38:36;;;;;;;67.80;37.72;;;7.40;99.90;;;;;;5033436;28;20090;-67
2023/04/23 02:41:01;;;;;;;79.15;41.97;;;7.40;99.90;;;;;;5051367;28;20041;-67
2023/04/23 02:43:27;;;;;;;95.80;49.25;;;7.40;99.90;;;;;;5051386;28;20386;-67
2023/04/23 02:45:53;;;;;;;72.05;40.45;;;7.40;99.90;;;;;;5050617;28;20037;-67
2023/04/23 02:48:20;;;;;;;70.97;39.92;;;7.40;99.90;;;;;;5049601;28;20033;-67
2023/04/23 02:50:45;;;;;;;136.05;50.63;;;7.40;99.90;;;;;;5051882;28;20048;-67
2023/04/23 02:53:11;;;;;;;313.67;92.03;;;7.40;99.90;;;;;;5051560;28;20398;-67
2023/04/23 02:55:37;;;;;;;309.52;79.97;;;7.40;99.90;;;;;;5050117;28;20036;-67
2023/04/23 02:58:02;;;;;;;169.15;58.40;;;7.40;99.90;;;;;;5050450;28;20044;-67
2023/04/23 03:00:28;;;;;;;156.85;55.78;;;7.50;99.90;;;;;;5051434;28;20041;-67
2023/04/23 03:02:54;;;;;;;109.43;50.42;;;7.40;99.90;;;;;;5049886;28;20076;-67
2023/04/23 03:05:19;;;;;;;99.65;46.10;;;7.40;99.90;;;;;;5033251;28;20041;-67
2023/04/23 03:07:45;;;;;;;125.40;50.78;;;7.40;99.90;;;;;;5051739;28;20453;-67
2023/04/23 03:10:11;;;;;;;131.55;54.92;;;7.40;99.90;;;;;;5032911;28;20080;-67
2023/04/23 03:12:36;;;;;;;149.90;55.38;;;7.40;99.90;;;;;;5049694;28;20497;-67
2023/04/23 03:15:02;;;;;;;90.03;46.33;;;7.40;99.90;;;;;;5051737;28;20048;-66
2023/04/23 03:17:28;;;;;;;125.55;54.42;;;7.50;99.90;;;;;;5048958;28;20103;-66
2023/04/23 03:19:54;;;;;;;127.05;51.75;;;7.50;99.90;;;;;;5051642;28;20037;-66
2023/04/23 03:22:19;;;;;;;138.23;59.00;;;7.40;99.90;;;;;;5052078;28;20049;-66
2023/04/23 03:24:45;;;;;;;121.50;53.90;;;7.50;99.90;;;;;;5053259;28;20401;-66
2023/04/23 03:27:11;;;;;;;119.07;57.92;;;7.50;99.90;;;;;;5055191;28;20041;-66
2023/04/23 03:29:36;;;;;;;131.55;58.38;;;7.50;99.90;;;;;;5052561;28;20505;-66
2023/04/23 03:32:02;;;;;;;155.95;65.93;;;7.50;99.90;;;;;;5055271;28;20132;-66
2023/04/23 03:34:28;;;;;;;123.05;58.58;;;7.60;99.90;;;;;;5052962;28;20044;-66
2023/04/23 03:36:54;;;;;;;156.88;67.45;;;7.60;99.90;;;;;;5036505;28;20730;-67
2023/04/23 03:39:20;;;;;;;128.48;57.08;;;7.60;99.90;;;;;;5053121;28;20037;-67
2023/04/23 03:41:45;;;;;;;116.28;60.78;;;7.60;99.90;;;;;;5053762;28;20110;-67
2023/04/23 03:44:11;;;;;;;99.38;55.83;;;7.60;99.90;;;;;;5052501;28;20060;-67
2023/04/23 03:46:36;;;;;;;102.35;57.53;;;7.60;99.90;;;;;;5053085;28;20155;-67
2023/04/23 03:49:02;;;;;;;135.00;61.22;;;7.60;99.90;;;;;;5054697;28;20084;-67
2023/04/23 03:51:28;;;;;;;116.82;58.20;;;7.60;99.90;;;;;;5053287;28;20040;-67
2023/04/23 03:53:53;;;;;;;105.97;57.40;;;7.70;99.90;;;;;;5053491;28;20116;-67
2023/04/23 03:56:20;;;;;;;110.20;56.85;;;7.70;99.90;;;;;;5053069;28;20041;-67
2023/04/23 03:58:45;;;;;;;116.82;60.35;;;7.70;99.90;;;;;;5052602;28;20123;-67
2023/04/23 04:01:11;;;;;;;112.68;59.22;;;7.70;99.90;;;;;;5053523;28;20825;-67
2023/04/23 04:03:37;;;;;;;111.28;59.72;;;7.70;99.90;;;;;;5053900;28;20461;-67
2023/04/23 04:06:03;;;;;;;141.77;66.00;;;7.70;99.90;;;;;;5035671;28;20086;-67
2023/04/23 04:08:28;;;;;;;125.93;63.53;;;7.70;99.90;;;;;;5052536;28;20056;-67
2023/04/23 04:10:54;;;;;;;122.40;61.65;;;7.80;99.90;;;;;;5053353;28;20071;-67
2023/04/23 04:13:20;;;;;;;111.88;57.75;;;7.80;99.90;;;;;;5051352;28;20029;-66
2023/04/23 04:15:46;;;;;;;131.07;65.13;;;7.80;99.90;;;;;;5053285;28;20081;-66
2023/04/23 04:18:12;;;;;;;106.72;59.47;;;7.80;99.90;;;;;;5054526;28;20036;-67
2023/04/23 04:20:37;;;;;;;107.50;56.70;;;7.80;99.90;;;;;;5034937;28;20456;-67
2023/04/23 04:23:03;;;;;;;130.82;64.57;;;7.80;99.90;;;;;;5052825;28;20037;-67
2023/04/23 04:25:29;;;;;;;116.63;60.75;;;7.80;99.90;;;;;;5052190;28;20571;-67
2023/04/23 04:27:56;;;;;;;98.55;56.63;;;7.90;99.90;;;;;;5052561;28;20037;-67
2023/04/23 04:30:23;;;;;;;110.05;61.03;;;7.90;99.90;;;;;;5051777;28;20086;-67
2023/04/23 04:32:49;;;;;;;98.55;57.60;;;7.80;99.90;;;;;;5052203;28;20090;-67
2023/04/23 04:35:15;;;;;;;109.55;60.63;;;7.90;99.90;;;;;;5051058;28;20091;-67
2023/04/23 04:37:42;;;;;;;108.00;58.58;;;7.80;99.90;;;;;;5052561;28;20076;-67
2023/04/23 04:40:10;;;;;;;118.30;62.30;;;7.90;99.90;;;;;;5051863;28;20049;-67
2023/04/23 04:42:36;;;;;;;112.07;59.10;;;7.80;99.90;;;;;;5053196;28;20049;-67
2023/04/23 04:45:03;;;;;;;123.82;62.58;;;7.90;99.90;;;;;;5052456;28;20040;-67
2023/04/23 04:47:29;;;;;;;110.32;58.95;;;7.80;99.90;;;;;;5051305;28;20045;-67
2023/04/23 04:49:56;;;;;;;108.35;59.22;;;7.80;99.90;;;;;;5052192;28;20040;-67
2023/04/23 04:52:23;;;;;;;119.85;63.20;;;7.80;99.90;;;;;;5052915;28;20112;-67
2023/04/23 04:54:49;;;;;;;110.07;58.88;;;7.90;99.90;;;;;;5052689;28;20040;-67
2023/04/23 04:57:14;;;;;;;102.85;58.50;;;7.90;99.90;;;;;;5035676;28;20036;-67
2023/04/23 04:59:40;;;;;;;130.93;66.10;;;7.90;99.90;;;;;;5035076;28;20044;-67
2023/04/23 05:02:06;;;;;;;116.88;60.10;;;7.90;99.90;;;;;;5052261;28;20033;-67
2023/04/23 05:04:31;;;;;;;113.38;58.10;;;7.90;99.90;;;;;;5052624;28;20037;-67
2023/04/23 05:06:57;;;;;;;108.57;56.67;;;7.90;99.90;;;;;;5053350;28;20033;-67
2023/04/23 05:09:23;;;;;;;109.65;56.75;;;8.00;99.90;;;;;;5051865;28;20055;-67
2023/04/23 05:11:49;;;;;;;124.72;62.45;;;8.00;99.90;;;;;;5051820;28;20075;-67
2023/04/23 05:14:15;;;;;;;104.18;56.75;;;8.10;99.90;;;;;;5035189;28;20044;-67
2023/04/23 05:16:40;;;;;;;117.38;61.25;;;8.10;99.90;;;;;;5050709;28;20068;-67
2023/04/23 05:19:07;;;;;;;107.78;58.63;;;8.10;99.90;;;;;;5053044;28;20167;-67
2023/04/23 05:21:33;;;;;;;108.07;56.78;;;8.10;99.90;;;;;;5052221;28;20044;-67
2023/04/23 05:23:58;;;;;;;114.78;58.25;;;8.10;99.90;;;;;;5050900;28;20052;-67
2023/04/23 05:26:24;;;;;;;118.05;60.05;;;8.10;99.90;;;;;;5052250;28;20041;-67
2023/04/23 05:28:50;;;;;;;108.72;56.67;;;8.20;99.90;;;;;;5051961;28;20389;-67
2023/04/23 05:31:15;;;;;;;114.15;60.08;;;8.20;99.90;;;;;;5050201;28;20456;-67
2023/04/23 05:33:43;;;;;;;97.35;55.05;;;8.30;99.90;;;;;;5051220;28;20057;-67
2023/04/23 05:36:09;;;;;;;93.93;54.50;;;8.30;99.90;;;;;;5052486;28;20102;-67
2023/04/23 05:38:35;;;;;;;99.90;58.28;;;8.30;99.90;;;;;;5050961;28;20040;-67
2023/04/23 05:41:01;;;;;;;93.85;54.80;;;8.30;99.90;;;;;;5052772;28;20452;-67
2023/04/23 05:43:26;;;;;;;87.40;52.35;;;8.40;99.90;;;;;;5051330;28;20041;-67
2023/04/23 05:45:52;;;;;;;95.47;51.90;;;8.40;99.90;;;;;;5052519;28;20481;-67
2023/04/23 05:48:18;;;;;;;85.97;47.35;;;8.40;99.90;;;;;;5050791;28;20094;-67
2023/04/23 05:50:43;;;;;;;81.93;47.00;;;8.50;99.90;;;;;;5051320;28;20044;-67
2023/04/23 05:53:09;;;;;;;94.13;52.67;;;8.50;99.90;;;;;;5052266;28;20052;-67
2023/04/23 05:55:35;;;;;;;77.00;47.25;;;8.50;99.90;;;;;;5034398;28;20041;-67
2023/04/23 05:58:01;;;;;;;80.65;47.53;;;8.60;99.90;;;;;;5050727;28;20573;-67
2023/04/23 06:00:27;;;;;;;79.07;47.78;;;8.60;99.90;;;;;;5050839;28;20087;-68
2023/04/23 06:02:53;;;;;;;79.40;48.60;;;8.70;99.90;;;;;;5050394;28;20083;-67
2023/04/23 06:05:19;;;;;;;78.95;49.00;;;8.70;99.90;;;;;;5050742;28;20079;-67
2023/04/23 06:07:45;;;;;;;73.38;44.22;;;8.80;99.90;;;;;;5051139;28;20041;-67
2023/04/23 06:10:11;;;;;;;73.80;44.22;;;8.80;99.90;;;;;;5051999;28;20405;-67
2023/04/23 06:12:40;;;;;;;72.80;44.10;;;8.80;99.90;;;;;;5050585;28;20371;-67
2023/04/23 06:15:07;;;;;;;69.68;44.60;;;8.80;99.90;;;;;;5033707;28;20116;-67
2023/04/23 06:17:34;;;;;;;62.60;40.88;;;8.80;99.90;;;;;;5050638;28;20049;-67
2023/04/23 06:20:00;;;;;;;75.50;44.90;;;8.80;99.90;;;;;;5050282;28;20052;-68
2023/04/23 06:22:26;;;;;;;68.53;41.72;;;8.90;99.90;;;;;;5050691;28;20040;-67
2023/04/23 06:24:51;;;;;;;59.30;40.22;;;9.00;99.90;;;;;;5050735;28;20041;-67
2023/04/23 06:27:17;;;;;;;63.45;39.22;;;9.10;99.90;;;;;;5048884;28;20124;-67
2023/04/23 06:29:43;;;;;;;59.35;38.38;;;9.20;99.90;;;;;;5051753;28;20127;-67
2023/04/23 06:32:08;;;;;;;53.78;35.30;;;9.30;99.90;;;;;;5052257;28;20410;-67
2023/04/23 06:34:35;;;;;;;50.47;34.35;;;9.30;99.90;;;;;;5031051;28;20044;-67
2023/04/23 06:37:01;;;;;;;57.72;37.25;;;9.40;99.90;;;;;;5033921;28;20041;-68
2023/04/23 06:39:26;;;;;;;54.33;34.72;;;9.50;99.90;;;;;;5048519;28;20484;-67
2023/04/23 06:41:52;;;;;;;53.00;33.53;;;9.60;99.90;;;;;;5050149;28;20474;-67
2023/04/23 06:44:18;;;;;;;51.85;35.00;;;9.70;99.90;;;;;;5051009;28;20033;-67
2023/04/23 06:46:43;;;;;;;52.63;35.60;;;9.80;99.90;;;;;;5049431;28;20037;-67
2023/04/23 06:49:09;;;;;;;50.75;33.70;;;9.80;99.90;;;;;;5051551;28;20440;-67
2023/04/23 06:51:35;;;;;;;54.05;37.03;;;9.90;99.90;;;;;;5051348;28;20451;-68
2023/04/23 06:54:00;;;;;;;46.97;31.60;;;9.90;99.90;;;;;;5049675;28;20037;-67
2023/04/23 06:56:26;;;;;;;49.97;35.33;;;10.00;99.90;;;;;;5050468;28;20025;-67
2023/04/23 06:58:52;;;;;;;51.00;34.10;;;10.00;99.90;;;;;;5054555;28;20086;-67
2023/04/23 07:01:18;;;;;;;51.85;35.65;;;10.10;99.90;;;;;;5054798;28;20127;-67
2023/04/23 07:03:47;;;;;;;49.83;36.08;;;10.20;99.90;;;;;;5053948;28;20072;-67
2023/04/23 07:06:16;;;;;;;55.65;38.33;;;10.30;99.90;;;;;;5054086;28;20048;-67
2023/04/23 07:08:44;;;;;;;48.55;35.70;;;10.40;99.90;;;;;;5042554;28;20073;-67
2023/04/23 07:11:10;;;;;;;48.83;34.75;;;10.40;99.90;;;;;;5052029;28;20127;-67
2023/04/23 07:13:36;;;;;;;48.55;34.53;;;10.60;99.90;;;;;;5052546;28;20076;-67
2023/04/23 07:16:01;;;;;;;49.35;35.38;;;10.70;99.90;;;;;;5051162;28;20123;-67
2023/04/23 07:18:27;;;;;;;47.53;34.20;;;10.90;99.90;;;;;;5051612;28;20151;-66
2023/04/23 07:20:53;;;;;;;47.05;33.65;;;11.10;99.90;;;;;;5053073;28;20043;-66
2023/04/23 07:23:18;;;;;;;46.17;32.63;;;11.20;99.90;;;;;;5050612;28;20041;-72
2023/04/23 07:25:44;;;;;;;48.25;33.80;;;11.30;99.90;;;;;;5034909;28;20090;-74
2023/04/23 07:28:10;;;;;;;54.28;33.88;;;11.30;99.90;;;;;;5052970;28;20074;-71
2023/04/23 07:30:35;;;;;;;46.60;33.28;;;11.30;99.90;;;;;;5051000;28;20110;-68
2023/04/23 07:33:01;;;;;;;43.97;31.83;;;11.40;99.90;;;;;;5052217;28;20060;-72
2023/04/23 07:35:27;;;;;;;45.95;32.95;;;11.50;99.90;;;;;;5052440;28;20074;-73
2023/04/23 07:37:54;;;;;;;49.53;33.85;;;11.50;99.90;;;;;;5050696;28;20072;-72
2023/04/23 07:40:24;;;;;;;42.33;31.65;;;11.50;99.90;;;;;;5039421;28;20049;-73
2023/04/23 07:42:50;;;;;;;42.78;30.83;;;11.40;99.90;;;;;;5040450;28;20048;-74
2023/04/23 07:45:17;;;;;;;47.33;33.53;;;11.50;99.90;;;;;;5034831;28;20053;-73
2023/04/23 07:47:44;;;;;;;43.97;30.60;;;11.50;99.90;;;;;;5039463;28;20052;-73
2023/04/23 07:50:10;;;;;;;41.40;31.52;;;11.60;99.90;;;;;;5051619;28;20041;-74
2023/04/23 07:52:36;;;;;;;42.25;30.30;;;11.60;99.90;;;;;;5033957;28;20037;-74
2023/04/23 07:55:02;;;;;;;48.13;33.72;;;11.60;99.90;;;;;;5033756;28;20133;-72
2023/04/23 07:57:28;;;;;;;40.88;30.15;;;11.60;99.90;;;;;;5031465;28;20041;-72
2023/04/23 07:59:53;;;;;;;43.22;30.83;;;11.60;99.90;;;;;;5049376;28;20067;-73
2023/04/23 08:02:24;;;;;;;43.53;31.52;;;11.70;99.90;;;;;;5048170;28;20075;-73
2023/04/23 08:04:51;;;;;;;42.25;29.42;;;11.90;99.90;;;;;;5027893;28;20092;-72
2023/04/23 08:07:17;;;;;;;42.97;29.77;;;11.90;99.90;;;;;;5029551;28;20621;-73
2023/04/23 08:09:43;;;;;;;44.08;30.58;;;12.00;99.90;;;;;;5036709;28;20159;-73
2023/04/23 08:12:09;;;;;;;36.42;27.67;;;12.20;99.90;;;;;;5050697;28;20049;-73
2023/04/23 08:14:34;;;;;;;42.17;30.40;;;12.20;99.90;;;;;;5050755;28;20037;-73
2023/04/23 08:17:00;;;;;;;37.95;27.48;;;12.30;99.90;;;;;;5049903;28;20041;-73
2023/04/23 08:19:30;;;;;;;34.95;25.80;;;12.40;99.90;;;;;;5048429;28;20036;-72
2023/04/23 08:21:56;;;;;;;31.85;23.73;;;12.60;99.90;;;;;;5050638;28;20052;-71
2023/04/23 08:24:21;;;;;;;31.92;23.73;;;12.70;99.90;;;;;;5050529;28;20033;-72
2023/04/23 08:26:47;;;;;;;32.33;23.52;;;12.80;99.90;;;;;;5051099;28;20049;-72
2023/04/23 08:29:13;;;;;;;32.47;24.27;;;12.90;99.90;;;;;;5050744;28;20041;-72
2023/04/23 08:31:38;;;;;;;32.58;23.90;;;12.90;99.90;;;;;;5049411;28;20033;-72
2023/04/23 08:34:04;;;;;;;33.00;22.52;;;13.10;99.90;;;;;;5049062;28;20425;-70
2023/04/23 08:36:30;;;;;;;33.35;22.95;;;13.20;99.90;;;;;;5033518;28;20041;-73
2023/04/23 08:38:56;;;;;;;29.77;21.90;;;13.30;99.90;;;;;;5048518;28;20049;-73
2023/04/23 08:41:25;;;;;;;27.38;20.17;;;13.40;99.90;;;;;;5048227;28;20095;-72
2023/04/23 08:44:05;;;;;;;30.48;21.58;;;13.40;99.90;;;;;;5032688;28;20048;-73
2023/04/23 08:46:31;;;;;;;27.08;18.95;;;13.60;99.90;;;;;;5048501;28;20116;-73
2023/04/23 08:48:59;;;;;;;29.25;22.67;;;13.60;99.90;;;;;;5049712;28;20047;-73
2023/04/23 08:51:28;;;;;;;31.80;23.40;;;13.70;99.90;;;;;;5050152;28;20059;-73
2023/04/23 08:53:58;;;;;;;29.65;20.75;;;13.80;99.90;;;;;;5049261;28;20056;-73
2023/04/23 08:56:24;;;;;;;29.25;21.83;;;13.90;99.90;;;;;;5032027;28;20044;-72
2023/04/23 08:58:49;;;;;;;26.00;19.33;;;14.00;99.90;;;;;;5033547;28;20053;-73
2023/04/23 09:01:16;;;;;;;24.38;17.63;;;14.10;99.90;;;;;;5034839;28;20052;-72
2023/04/23 09:03:42;;;;;;;24.73;17.45;;;14.20;99.90;;;;;;5049271;28;20132;-72
2023/04/23 09:06:08;;;;;;;22.20;16.55;;;14.20;99.90;;;;;;5049712;28;20044;-74
2023/04/23 09:08:34;;;;;;;21.65;15.70;;;14.40;99.90;;;;;;5048055;28;20106;-73
2023/04/23 09:11:01;;;;;;;24.10;17.33;;;14.40;99.90;;;;;;5049585;28;20108;-73
2023/04/23 09:13:29;;;;;;;20.30;15.60;;;14.40;99.90;;;;;;5049007;28;20043;-72
2023/04/23 09:15:54;;;;;;;20.40;15.95;;;14.30;99.90;;;;;;5048216;28;20048;-73
2023/04/23 09:18:20;;;;;;;20.65;15.27;;;14.30;99.90;;;;;;5048958;28;20037;-72
2023/04/23 09:20:46;;;;;;;22.42;14.52;;;14.30;99.90;;;;;;5049809;28;20413;-72
2023/04/23 09:23:13;;;;;;;19.52;15.57;;;14.30;99.90;;;;;;5047588;28;20498;-68
2023/04/23 09:25:39;;;;;;;22.90;16.35;;;14.30;99.90;;;;;;5030254;28;20116;-68
2023/04/23 09:28:10;;;;;;;18.48;14.32;;;14.30;99.90;;;;;;5048532;28;20116;-69
2023/04/23 09:30:43;;;;;;;18.38;12.70;;;14.30;99.90;;;;;;5048636;28;20048;-68
2023/04/23 09:33:12;;;;;;;18.88;13.82;;;14.50;99.90;;;;;;5048848;28;20094;-68
2023/04/23 09:35:40;;;;;;;17.02;12.30;;;14.60;99.90;;;;;;5047559;28;20041;-69
2023/04/23 09:38:07;;;;;;;17.65;13.05;;;14.80;99.90;;;;;;5048960;28;20047;-68
2023/04/23 09:40:33;;;;;;;16.95;11.98;;;14.90;99.90;;;;;;5031559;28;20049;-67
2023/04/23 09:43:03;;;;;;;16.15;11.40;;;15.00;99.90;;;;;;5047920;28;20048;-67
2023/04/23 09:45:29;;;;;;;13.95;10.88;;;15.20;99.90;;;;;;5047965;28;20055;-66
2023/04/23 09:47:57;;;;;;;19.83;12.18;;;15.30;99.90;;;;;;5048323;28;20033;-64
2023/04/23 09:50:42;;;;;;;14.00;10.52;;;15.30;99.90;;;;;;5047090;28;20051;-66
2023/04/23 09:53:09;;;;;;;12.75;9.25;;;15.30;99.90;;;;;;5049857;28;20490;-67
2023/04/23 09:55:41;;;;;;;15.75;9.90;;;15.50;99.90;;;;;;5047977;28;20440;-66
2023/04/23 09:58:12;;;;;;;15.30;10.55;;;15.60;99.90;;;;;;5064304;28;20041;-66
2023/04/23 10:00:38;;;;;;;15.45;10.55;;;15.70;99.90;;;;;;5047342;28;20041;-67
2023/04/23 10:03:06;;;;;;;11.48;7.60;;;15.80;99.90;;;;;;5048895;28;20133;-66
2023/04/23 10:05:38;;;;;;;10.98;7.07;;;15.80;99.90;;;;;;5046364;28;20080;-67
2023/04/23 10:08:05;;;;;;;14.55;8.00;;;15.80;99.90;;;;;;5062010;28;20466;-67
2023/04/23 10:10:31;;;;;;;12.63;8.13;;;15.80;99.90;;;;;;5045307;28;20056;-66
2023/04/23 10:12:57;;;;;;;13.48;7.43;;;15.70;99.90;;;;;;5048763;28;20052;-66
2023/04/23 10:15:25;;;;;;;12.38;6.85;;;15.70;99.90;;;;;;5047667;28;20087;-65
2023/04/23 10:17:52;;;;;;;13.18;8.07;;;15.60;99.90;;;;;;5030501;28;20037;-65
2023/04/23 10:20:21;;;;;;;13.48;7.15;;;15.40;99.90;;;;;;5030967;28;20048;-65
2023/04/23 10:22:47;;;;;;;15.55;7.30;;;15.30;99.90;;;;;;5049047;28;20048;-66
2023/04/23 10:25:13;;;;;;;10.18;5.93;;;15.20;99.90;;;;;;5046832;28;20053;-65
2023/04/23 10:27:42;;;;;;;11.23;6.90;;;15.30;99.90;;;;;;5048730;28;20040;-66
2023/04/23 10:30:10;;;;;;;12.38;6.88;;;15.40;99.90;;;;;;5049552;28;20106;-65
2023/04/23 10:32:37;;;;;;;10.55;5.85;;;15.50;99.90;;;;;;5049355;28;20136;-64
2023/04/23 10:35:03;;;;;;;14.02;6.82;;;15.60;99.90;;;;;;5053129;28;20118;-64
2023/04/23 10:37:29;;;;;;;12.30;5.60;;;15.80;99.90;;;;;;5052267;28;20037;-64
2023/04/23 10:40:03;;;;;;;8.32;4.63;;;15.80;99.90;;;;;;5051456;28;20037;-64
2023/04/23 10:42:28;;;;;;;11.77;5.63;;;15.90;99.90;;;;;;5051009;28;20040;-64
2023/04/23 10:44:58;;;;;;;8.88;4.65;;;16.10;99.90;;;;;;5053119;28;20571;-65
2023/04/23 10:47:24;;;;;;;7.75;4.63;;;16.20;99.90;;;;;;5050915;28;20120;-65
2023/04/23 10:49:50;;;;;;;8.73;4.75;;;16.30;99.90;;;;;;5051712;28;20123;-62
2023/04/23 10:52:17;;;;;;;6.60;3.58;;;16.30;99.90;;;;;;5051639;28;20041;-62
2023/04/23 10:54:55;;;;;;;9.20;4.03;;;16.30;99.90;;;;;;5051724;28;20098;-62
2023/04/23 10:57:21;;;;;;;7.68;4.47;;;16.40;99.90;;;;;;5034136;28;20051;-62
2023/04/23 10:59:52;;;;;;;7.53;3.70;;;16.40;99.90;;;;;;5050862;28;20040;-62
2023/04/23 11:02:19;;;;;;;6.97;3.72;;;16.30;99.90;;;;;;5034601;28;20033;-62
2023/04/23 11:04:46;;;;;;;9.30;3.38;;;16.20;99.90;;;;;;5032544;28;20037;-62
2023/04/23 11:07:12;;;;;;;9.60;3.35;;;16.20;99.90;;;;;;5046686;28;20117;-62
2023/04/23 11:09:43;;;;;;;7.80;3.30;;;16.20;99.90;;;;;;5034020;28;20057;-62
2023/04/23 11:12:11;;;;;;;5.78;2.75;;;16.30;99.90;;;;;;5051127;28;20505;-62
2023/04/23 11:14:40;;;;;;;9.43;2.80;;;16.40;99.90;;;;;;5050514;28;20055;-62
2023/04/23 11:17:06;;;;;;;7.35;2.60;;;16.40;99.90;;;;;;5035726;28;20457;-62
2023/04/23 11:19:39;;;;;;;7.65;2.72;;;16.50;99.90;;;;;;5030463;28;20045;-62
2023/04/23 11:22:12;;;;;;;6.68;3.20;;;16.50;99.90;;;;;;5030354;28;20043;-62
2023/04/23 11:24:41;;;;;;;9.02;3.45;;;16.60;99.90;;;;;;5035148;28;20048;-62
2023/04/23 11:27:09;;;;;;;6.63;2.53;;;16.70;99.90;;;;;;5051183;28;20041;-62
2023/04/23 11:29:37;;;;;;;8.40;3.38;;;16.70;99.90;;;;;;5050898;28;20547;-62
2023/04/23 11:32:04;;;;;;;7.47;3.60;;;16.60;99.90;;;;;;5052142;28;20045;-62
2023/04/23 11:34:31;;;;;;;8.65;3.50;;;16.70;99.90;;;;;;5050147;28;20041;-62
2023/04/23 11:36:58;;;;;;;6.70;3.17;;;16.80;99.90;;;;;;5047587;28;20124;-62
2023/04/23 11:39:24;;;;;;;6.40;2.78;;;17.00;99.90;;;;;;5049382;28;20505;-62
2023/04/23 11:41:51;;;;;;;9.52;3.97;;;17.30;99.90;;;;;;5050274;28;20099;-62
2023/04/23 11:44:18;;;;;;;6.53;3.40;;;17.40;99.90;;;;;;5048511;28;20119;-62
2023/04/23 11:46:48;;;;;;;7.82;4.13;;;17.50;99.90;;;;;;5049756;28;20051;-62
2023/04/23 11:49:18;;;;;;;7.35;4.38;;;17.60;99.90;;;;;;5050668;28;20045;-62
2023/04/23 11:51:44;;;;;;;12.40;4.20;;;17.70;99.90;;;;;;5042287;28;20041;-62
2023/04/23 11:54:10;;;;;;;6.32;3.72;;;17.70;99.90;;;;;;5050131;28;20520;-62
2023/04/23 11:56:37;;;;;;;9.35;3.28;;;17.80;99.90;;;;;;5049539;28;20099;-62
2023/04/23 11:59:04;;;;;;;6.90;3.20;;;18.00;99.90;;;;;;5050936;28;20102;-62
2023/04/23 12:01:46;;;;;;;8.05;3.63;;;18.00;99.90;;;;;;5050563;28;20055;-62
2023/04/23 12:04:12;;;;;;;6.45;3.30;;;17.90;99.90;;;;;;5048571;28;20049;-62
2023/04/23 12:06:41;;;;;;;8.40;3.38;;;17.70;99.90;;;;;;5050531;28;20477;-63
2023/04/23 12:09:07;;;;;;;7.63;3.15;;;17.60;99.90;;;;;;5051062;28;20060;-62
2023/04/23 12:11:34;;;;;;;5.80;2.53;;;17.50;99.90;;;;;;5049115;28;20115;-62
2023/04/23 12:14:00;;;;;;;5.68;2.60;;;17.70;99.90;;;;;;5049321;28;20041;-62
2023/04/23 12:16:40;;;;;;;8.07;2.63;;;17.70;99.90;;;;;;5030778;28;20098;-62
2023/04/23 12:19:17;;;;;;;7.60;2.80;;;17.70;99.90;;;;;;5021051;28;20041;-62
2023/04/23 12:22:01;;;;;;;7.18;2.53;;;17.70;99.90;;;;;;5048964;28;20080;-62
2023/04/23 12:24:44;;;;;;;4.30;2.22;;;17.70;99.90;;;;;;5049288;28;20045;-62
2023/04/23 12:27:14;;;;;;;10.20;2.42;;;17.90;99.90;;;;;;5050187;28;20052;-62
2023/04/23 12:29:40;;;;;;;7.25;2.17;;;18.10;99.90;;;;;;5049351;28;20044;-62